Time;durP1;ratioP1;P1;durP2;ratioP2;P2;SDS_P1;SDS_P2;PMS_P1;PMS_P2;Temp;Humidity;BMP_temperature;BMP_pressure;BME280_temperature;BME280_humidity;BME280_pressure;Samples;Min_cycle;Max_cycle;Signal;HPM_P1;HPM_P2
2021/12/07 00:00:49;;;;;;;10.10;5.40;;;;;;;3.84;84.54;98474.28;4890635;29;20043;-78
2021/12/07 00:03:14;;;;;;;7.30;5.05;;;;;;;3.72;84.25;98479.19;4891032;29;20036;-78
2021/12/07 00:05:40;;;;;;;12.30;5.30;;;;;;;3.70;84.95;98478.41;4884350;29;20102;-77
2021/12/07 00:08:05;;;;;;;11.18;4.95;;;;;;;3.65;84.88;98479.44;4914441;29;20044;-77
2021/12/07 00:10:31;;;;;;;9.25;6.05;;;;;;;3.65;85.58;98481.19;4907427;29;20061;-76
2021/12/07 00:12:58;;;;;;;8.10;5.18;;;;;;;3.67;85.56;98481.97;4906014;29;20033;-80
2021/12/07 00:15:24;;;;;;;8.23;6.57;;;;;;;3.70;85.85;98484.44;4908257;29;20055;-77
2021/12/07 00:17:50;;;;;;;11.50;6.68;;;;;;;3.72;86.00;98500.88;4895181;29;20053;-79
2021/12/07 00:20:18;;;;;;;9.57;6.57;;;;;;;3.75;85.67;98499.91;4894368;29;20512;-80
2021/12/07 00:22:46;;;;;;;15.05;6.70;;;;;;;3.78;85.50;98491.94;4894416;29;20052;-79
2021/12/07 00:25:14;;;;;;;11.02;7.68;;;;;;;3.81;85.46;98503.06;4878718;29;20043;-78
2021/12/07 00:27:39;;;;;;;18.65;8.40;;;;;;;3.83;85.51;98511.69;4879179;29;20120;-78
2021/12/07 00:30:12;;;;;;;12.88;8.73;;;;;;;3.85;85.92;98514.22;4895497;29;20076;-77
2021/12/07 00:32:43;;;;;;;15.02;8.93;;;;;;;3.90;86.05;98529.69;4884419;29;20044;-77
2021/12/07 00:37:57;;;;;;;13.93;8.02;;;;;;;3.86;85.80;98526.34;4912439;29;20039;-77
2021/12/07 00:40:24;;;;;;;13.02;8.40;;;;;;;3.85;85.92;98530.72;4913263;29;20114;-77
2021/12/07 00:42:50;;;;;;;13.85;8.10;;;;;;;3.87;85.67;98533.28;4913930;29;20248;-77
2021/12/07 00:45:19;;;;;;;11.73;6.32;;;;;;;3.88;85.46;98540.16;4915158;29;20040;-77
2021/12/07 00:47:44;;;;;;;11.05;7.50;;;;;;;3.86;85.20;98542.00;4916135;29;20042;-79
2021/12/07 00:50:10;;;;;;;11.40;5.25;;;;;;;3.86;85.21;98555.03;4914081;29;20044;-76
2021/12/07 00:52:36;;;;;;;16.27;5.68;;;;;;;3.82;84.92;98558.69;4912187;29;20116;-78
2021/12/07 00:55:07;;;;;;;16.13;6.78;;;;;;;3.74;84.67;98563.34;4913638;29;20068;-78
2021/12/07 00:57:33;;;;;;;8.82;4.68;;;;;;;3.70;85.00;98578.28;4914220;29;20040;-78
2021/12/07 00:59:58;;;;;;;11.88;5.97;;;;;;;3.68;85.62;98577.50;4928145;29;20401;-78
2021/12/07 01:02:23;;;;;;;12.13;6.13;;;;;;;3.68;86.20;98579.25;4929561;29;20032;-77
2021/12/07 01:04:57;;;;;;;10.57;7.10;;;;;;;3.70;86.22;98591.31;4897728;29;20119;-75
2021/12/07 01:26:30;;;;;;;22.15;8.63;;;;;;;3.64;86.84;98615.88;4915501;29;20123;-77
2021/12/07 01:28:56;;;;;;;21.10;9.02;;;;;;;3.65;87.07;98617.56;4917090;29;20115;-76
2021/12/07 01:31:32;;;;;;;19.45;6.95;;;;;;;3.72;87.44;98615.56;4917097;29;20044;-77
2021/12/07 01:34:17;;;;;;;12.23;6.18;;;;;;;3.78;87.28;98614.47;4902304;29;20448;-77
2021/12/07 01:45:17;;;;;;;17.70;6.35;;;;;;;3.97;85.18;98622.38;4889488;29;20565;-79
2021/12/07 01:48:08;;;;;;;18.10;6.73;;;;;;;3.98;85.17;98639.72;4926545;29;20044;-76
2021/12/07 02:01:07;;;;;;;20.35;8.50;;;;;;;4.14;84.47;98660.81;4892525;29;20142;-79
2021/12/07 02:03:33;;;;;;;16.77;8.38;;;;;;;4.14;84.14;98671.25;4897096;29;20036;-78
2021/12/07 02:05:59;;;;;;;20.80;6.90;;;;;;;4.11;84.69;98681.78;4904545;29;20447;-78
2021/12/07 02:08:25;;;;;;;22.30;8.48;;;;;;;4.11;85.00;98687.00;4918080;29;20032;-77
2021/12/07 02:10:54;;;;;;;19.13;7.80;;;;;;;4.14;84.55;98686.91;4921398;29;20028;-77
2021/12/07 02:14:16;;;;;;;24.15;7.20;;;;;;;4.14;84.35;98690.34;4920842;29;20033;-77
2021/12/07 02:16:07;;;;;;;17.10;6.72;;;;;;;4.17;84.13;98700.66;4919545;29;20071;-78
2021/12/07 02:18:33;;;;;;;19.13;6.90;;;;;;;4.15;84.29;98694.63;4916976;29;20032;-77
2021/12/07 02:21:15;;;;;;;22.65;6.47;;;;;;;4.17;84.16;98694.59;4918202;29;20416;-77
2021/12/07 02:23:41;;;;;;;19.80;7.40;;;;;;;4.15;83.48;98693.78;4918598;29;20032;-80
2021/12/07 02:26:07;;;;;;;15.32;6.88;;;;;;;4.17;83.63;98705.03;4918830;29;20051;-77
2021/12/07 02:28:38;;;;;;;16.05;5.93;;;;;;;4.14;83.24;98699.94;4905038;29;20036;-78
2021/12/07 02:31:03;;;;;;;15.07;7.65;;;;;;;4.15;83.29;98706.84;4925612;29;20051;-78
2021/12/07 02:33:29;;;;;;;13.10;6.55;;;;;;;4.14;83.34;98718.19;4926437;29;20028;-78
2021/12/07 02:35:54;;;;;;;15.32;5.82;;;;;;;4.11;83.16;98719.16;4928027;29;20516;-77
2021/12/07 02:38:20;;;;;;;15.07;7.32;;;;;;;4.12;83.00;98726.06;4924693;29;20047;-77
2021/12/07 02:40:45;;;;;;;12.05;5.47;;;;;;;4.12;82.45;98731.28;4921939;29;20395;-79
2021/12/07 02:43:11;;;;;;;18.27;5.80;;;;;;;4.15;82.37;98740.75;4903710;29;20040;-79
2021/12/07 02:45:36;;;;;;;19.50;6.20;;;;;;;4.15;82.58;98730.31;4916539;29;20055;-80
2021/12/07 02:48:01;;;;;;;13.15;6.15;;;;;;;4.16;82.18;98750.25;4902196;29;20762;-79
2021/12/07 02:50:27;;;;;;;12.43;6.32;;;;;;;4.14;81.74;98752.09;4926234;29;20032;-79
2021/12/07 02:52:52;;;;;;;13.85;5.78;;;;;;;4.10;81.33;98740.91;4926727;29;20040;-79
2021/12/07 02:55:18;;;;;;;21.00;6.68;;;;;;;4.06;81.97;98758.47;4912848;29;20571;-79
2021/12/07 02:57:44;;;;;;;10.93;4.82;;;;;;;4.04;81.32;98760.28;4910430;29;20051;-79
2021/12/07 03:00:17;;;;;;;12.75;4.80;;;;;;;4.01;82.21;98760.41;4930533;29;20036;-80
2021/12/07 03:02:53;;;;;;;11.00;5.43;;;;;;;4.01;81.81;98759.53;4929639;29;20047;-78
2021/12/07 03:26:50;;;;;;;22.77;9.25;;;;;;;4.25;82.15;98808.13;4922871;29;20112;-76
2021/12/07 03:29:16;;;;;;;23.63;8.90;;;;;;;4.25;81.88;98821.19;4922370;29;20032;-77
2021/12/07 03:31:41;;;;;;;21.60;8.00;;;;;;;4.25;81.59;98825.56;4921982;29;20040;-80
2021/12/07 03:34:07;;;;;;;28.75;6.78;;;;;;;4.26;81.71;98824.66;4921664;29;20047;-77
2021/12/07 03:36:33;;;;;;;11.68;6.38;;;;;;;4.24;81.75;98818.66;4935641;29;20040;-77
2021/12/07 03:38:59;;;;;;;24.08;8.88;;;;;;;4.18;81.43;98818.88;4933724;29;20130;-78
2021/12/07 03:41:25;;;;;;;22.23;6.90;;;;;;;4.15;81.77;98813.78;4929282;29;20036;-79
2021/12/07 03:43:51;;;;;;;23.52;8.10;;;;;;;4.08;81.89;98819.22;4914626;29;20043;-78
2021/12/07 03:46:17;;;;;;;12.60;5.72;;;;;;;4.06;81.54;98821.06;4912254;29;20040;-77
2021/12/07 03:48:43;;;;;;;18.42;6.53;;;;;;;4.04;81.76;98829.84;4929882;29;20063;-79
2021/12/07 03:51:09;;;;;;;15.93;6.30;;;;;;;4.02;81.88;98831.66;4931136;29;20036;-79
2021/12/07 03:53:36;;;;;;;17.17;6.35;;;;;;;4.04;82.28;98845.50;4928815;29;20035;-78
2021/12/07 03:56:03;;;;;;;15.18;6.95;;;;;;;3.99;82.45;98840.44;4935239;29;20059;-78
2021/12/07 03:58:28;;;;;;;21.67;7.03;;;;;;;4.03;81.79;98852.44;4950760;29;20035;-80
2021/12/07 04:00:54;;;;;;;19.95;6.80;;;;;;;4.06;81.66;98852.34;4928668;29;20122;-79
2021/12/07 04:03:20;;;;;;;18.13;7.60;;;;;;;4.06;81.39;98856.69;4928845;29;20048;-79
2021/12/07 04:05:49;;;;;;;13.20;6.40;;;;;;;4.09;81.61;98865.28;4930182;29;20039;-78
2021/12/07 04:08:19;;;;;;;14.55;6.38;;;;;;;4.09;81.44;98860.06;4912240;29;20056;-80
2021/12/07 04:10:44;;;;;;;19.17;7.00;;;;;;;4.09;81.53;98862.66;4911868;29;20039;-80
2021/12/07 04:13:10;;;;;;;13.15;6.15;;;;;;;4.09;81.71;98867.03;4928742;29;20039;-79
2021/12/07 04:15:36;;;;;;;15.30;6.68;;;;;;;4.11;81.81;98883.47;4926040;29;20079;-79
2021/12/07 04:18:02;;;;;;;14.13;6.80;;;;;;;4.07;81.62;98879.28;4926901;29;20063;-79
2021/12/07 04:20:29;;;;;;;24.85;10.32;;;;;;;4.07;81.27;98874.91;4928360;29;20040;-81
2021/12/07 04:22:54;;;;;;;14.13;6.38;;;;;;;4.07;81.25;98887.09;4911399;29;20060;-81
2021/12/07 04:25:20;;;;;;;14.93;6.60;;;;;;;4.07;81.34;98893.16;4928840;29;20052;-78
2021/12/07 04:27:46;;;;;;;19.70;7.90;;;;;;;4.07;81.33;98889.72;4912198;29;20039;-79
2021/12/07 04:30:15;;;;;;;20.85;8.98;;;;;;;4.02;81.22;98891.66;4927819;29;20028;-78
2021/12/07 04:32:41;;;;;;;14.43;7.72;;;;;;;4.03;81.02;98898.53;4931309;29;20032;-81
2021/12/07 04:35:08;;;;;;;20.73;5.88;;;;;;;4.08;81.11;98896.63;4930771;29;20036;-78
2021/12/07 04:37:34;;;;;;;14.02;6.05;;;;;;;4.11;80.84;98900.88;4928637;29;20032;-77
2021/12/07 04:39:59;;;;;;;23.27;7.82;;;;;;;4.06;80.80;98904.50;4928858;29;20055;-77
2021/12/07 04:42:26;;;;;;;14.45;6.60;;;;;;;4.03;81.07;98896.78;4929254;29;20033;-77
2021/12/07 04:44:55;;;;;;;28.02;7.38;;;;;;;4.03;80.62;98912.44;4927089;29;20036;-79
2021/12/07 04:47:30;;;;;;;13.27;6.78;;;;;;;4.01;80.71;98916.88;4928271;29;20028;-78
2021/12/07 04:57:53;;;;;;;17.17;6.10;;;;;;;3.92;80.80;98912.00;4925583;29;20043;-77
2021/12/07 05:00:24;;;;;;;14.57;6.65;;;;;;;3.86;80.85;98918.28;4925798;29;20024;-76
2021/12/07 05:02:55;;;;;;;22.45;8.30;;;;;;;3.81;80.54;98916.72;4931542;29;20052;-77
2021/12/07 05:05:23;;;;;;;17.05;7.38;;;;;;;3.79;80.82;98926.34;4930795;29;20500;-77
2021/12/07 05:07:53;;;;;;;19.63;5.65;;;;;;;3.74;81.07;98934.38;4928972;29;20087;-77
2021/12/07 05:16:29;;;;;;;23.23;5.20;;;;;;;3.69;80.90;98956.25;4925080;29;20036;-77
2021/12/07 05:37:44;;;;;;;15.02;6.25;;;;;;;3.61;81.49;98956.53;4930610;29;20055;-78
2021/12/07 05:40:28;;;;;;;14.07;5.22;;;;;;;3.52;81.41;98957.72;4923115;29;20040;-78
2021/12/07 05:42:54;;;;;;;21.33;4.78;;;;;;;3.48;81.39;98961.31;4928910;29;20072;-78
2021/12/07 05:45:23;;;;;;;17.73;6.38;;;;;;;3.49;81.67;98963.00;4927559;29;20064;-77
2021/12/07 05:47:49;;;;;;;16.23;5.63;;;;;;;3.42;81.63;98972.78;4921489;29;20069;-79
2021/12/07 05:50:19;;;;;;;13.48;4.82;;;;;;;3.38;81.45;98968.56;4902472;29;20048;-78
2021/12/07 05:52:44;;;;;;;13.52;5.43;;;;;;;3.34;81.58;98985.19;4918735;29;20070;-79
2021/12/07 05:55:10;;;;;;;12.95;5.45;;;;;;;3.33;81.24;98980.06;4905219;29;20045;-77
2021/12/07 05:57:37;;;;;;;14.85;4.85;;;;;;;3.32;81.63;98988.75;4912794;29;20035;-77
2021/12/07 06:00:07;;;;;;;19.45;5.35;;;;;;;3.29;81.57;98989.72;4917944;29;20059;-77
2021/12/07 06:02:32;;;;;;;16.17;4.82;;;;;;;3.26;81.54;98989.81;4892577;29;20040;-78
2021/12/07 06:04:57;;;;;;;17.30;5.25;;;;;;;3.24;81.77;98999.44;4903144;29;20060;-78
2021/12/07 06:07:23;;;;;;;18.23;5.82;;;;;;;3.23;81.70;98997.75;4934510;29;20050;-79
2021/12/07 06:09:48;;;;;;;16.65;5.63;;;;;;;3.22;81.73;98996.91;4917306;29;20044;-79
2021/12/07 06:12:13;;;;;;;12.25;3.95;;;;;;;3.20;81.61;99001.28;4916436;29;20040;-79
2021/12/07 06:14:43;;;;;;;13.30;4.38;;;;;;;3.19;81.65;99010.00;4916156;29;20040;-78
2021/12/07 06:17:09;;;;;;;24.65;6.72;;;;;;;3.18;81.79;99018.72;4933372;29;20096;-78
2021/12/07 06:19:34;;;;;;;14.10;5.43;;;;;;;3.18;81.66;99026.53;4933202;29;20036;-76
2021/12/07 06:22:00;;;;;;;19.13;6.28;;;;;;;3.20;81.44;99018.69;4929133;29;20119;-78
2021/12/07 06:24:25;;;;;;;16.52;4.63;;;;;;;3.18;81.51;99023.94;4923767;29;20563;-79
2021/12/07 06:26:51;;;;;;;14.07;5.43;;;;;;;3.17;81.67;99023.97;4922501;29;20056;-78
2021/12/07 06:29:16;;;;;;;13.88;4.15;;;;;;;3.17;81.47;99029.16;4911500;29;20119;-79
2021/12/07 06:31:42;;;;;;;14.60;4.72;;;;;;;3.16;81.49;99028.31;4931201;29;20171;-79
2021/12/07 06:34:10;;;;;;;23.70;4.80;;;;;;;3.16;81.29;99033.53;4932118;29;20040;-79
2021/12/07 06:36:37;;;;;;;10.38;4.75;;;;;;;3.19;81.51;99030.81;4914258;29;20575;-77
2021/12/07 06:39:04;;;;;;;15.75;5.65;;;;;;;3.19;81.17;99027.38;4927796;29;20040;-77
2021/12/07 06:41:30;;;;;;;8.48;3.78;;;;;;;3.18;81.46;99028.28;4927136;29;20094;-77
2021/12/07 06:43:55;;;;;;;20.95;4.55;;;;;;;3.17;81.26;99030.00;4926608;29;20044;-77
2021/12/07 06:46:20;;;;;;;18.73;5.22;;;;;;;3.14;81.51;99034.47;4925042;29;20044;-77
2021/12/07 06:48:46;;;;;;;12.40;4.68;;;;;;;3.11;81.33;99030.22;4927196;29;20107;-77
2021/12/07 06:51:12;;;;;;;12.98;5.25;;;;;;;3.13;81.34;99030.19;4912224;29;20131;-78
2021/12/07 06:53:37;;;;;;;14.50;5.60;;;;;;;3.11;81.62;99030.22;4931062;29;20103;-80
2021/12/07 06:56:07;;;;;;;19.27;5.30;;;;;;;3.11;81.73;99031.97;4917115;29;20040;-81
2021/12/07 06:58:34;;;;;;;15.95;5.82;;;;;;;3.10;81.51;99030.25;4929556;29;20040;-78
2021/12/07 07:00:59;;;;;;;15.35;3.63;;;;;;;3.07;81.41;99036.41;4929300;29;20063;-78
2021/12/07 07:03:25;;;;;;;11.07;4.85;;;;;;;3.04;81.47;99039.13;4927354;29;20032;-78
2021/12/07 07:05:51;;;;;;;21.38;5.50;;;;;;;3.05;81.62;99037.38;4928109;29;20044;-78
2021/12/07 07:08:16;;;;;;;21.42;5.72;;;;;;;3.06;81.49;99041.69;4931157;29;20036;-79
2021/12/07 07:10:42;;;;;;;11.32;5.53;;;;;;;3.06;81.71;99033.88;4935254;29;20039;-82
2021/12/07 07:13:07;;;;;;;20.85;6.80;;;;;;;3.09;81.52;99034.63;4947779;29;20047;-79
2021/12/07 07:15:33;;;;;;;16.30;5.82;;;;;;;3.07;81.38;99032.97;4929433;29;20036;-79
2021/12/07 07:18:00;;;;;;;12.70;6.32;;;;;;;3.12;81.18;99033.66;4944292;29;20068;-79
2021/12/07 07:20:26;;;;;;;16.42;6.22;;;;;;;3.15;81.01;99036.16;4915801;29;20036;-79
2021/12/07 07:22:52;;;;;;;16.15;5.95;;;;;;;3.16;81.12;99038.75;4930048;29;20059;-78
2021/12/07 07:25:17;;;;;;;18.27;6.47;;;;;;;3.16;80.95;99036.13;4911867;29;20032;-77
2021/12/07 07:27:43;;;;;;;14.48;5.70;;;;;;;3.14;80.61;99035.31;4929883;29;20046;-78
2021/12/07 07:30:10;;;;;;;16.77;6.22;;;;;;;3.16;80.68;99040.50;4930083;29;20040;-77
2021/12/07 07:32:36;;;;;;;18.60;6.45;;;;;;;3.19;80.88;99045.59;4917502;29;20043;-70
2021/12/07 07:35:05;;;;;;;14.73;6.10;;;;;;;3.21;80.58;99044.66;4917054;29;20040;-70
2021/12/07 07:37:31;;;;;;;14.93;6.13;;;;;;;3.26;81.02;99043.66;4918880;29;20500;-69
2021/12/07 07:39:56;;;;;;;14.40;7.82;;;;;;;3.29;80.48;99040.97;4919416;29;20064;-71
2021/12/07 07:42:22;;;;;;;14.18;5.97;;;;;;;3.28;80.06;99039.28;4917089;29;20104;-69
2021/12/07 07:44:47;;;;;;;19.58;7.05;;;;;;;3.26;80.43;99039.31;4915776;29;20115;-69
2021/12/07 07:47:13;;;;;;;18.02;6.07;;;;;;;3.24;80.18;99043.72;4917245;29;20091;-69
2021/12/07 07:49:38;;;;;;;15.32;6.13;;;;;;;3.24;80.24;99035.91;4917816;29;20083;-70
2021/12/07 07:52:04;;;;;;;12.48;7.88;;;;;;;3.27;80.34;99037.53;4919465;29;20099;-70
2021/12/07 07:54:30;;;;;;;16.75;6.93;;;;;;;3.27;80.38;99035.78;4921070;29;20060;-70
2021/12/07 07:56:55;;;;;;;14.02;6.03;;;;;;;3.33;80.06;99035.63;4919195;29;20408;-71
2021/12/07 07:59:20;;;;;;;17.95;6.30;;;;;;;3.32;79.53;99030.44;4917499;29;20040;-70
2021/12/07 08:01:46;;;;;;;14.30;5.95;;;;;;;3.34;79.79;99028.63;4914920;29;20068;-71
2021/12/07 08:04:11;;;;;;;16.10;7.35;;;;;;;3.34;80.01;99026.03;4909710;29;20048;-72
2021/12/07 08:06:37;;;;;;;16.83;6.47;;;;;;;3.33;79.36;99027.78;4913462;29;20083;-71
2021/12/07 08:09:05;;;;;;;24.45;6.32;;;;;;;3.30;79.94;99029.63;4907442;29;20049;-72
2021/12/07 08:11:31;;;;;;;19.58;5.53;;;;;;;3.25;79.39;99034.13;4896088;29;20040;-72
2021/12/07 08:13:56;;;;;;;14.02;5.90;;;;;;;3.16;80.22;99028.31;4904770;29;20043;-73
2021/12/07 08:16:22;;;;;;;14.15;6.95;;;;;;;3.17;80.23;99035.22;4927129;29;20039;-72
2021/12/07 08:18:50;;;;;;;12.13;5.45;;;;;;;3.18;79.76;99044.75;4905069;29;20052;-70
2021/12/07 08:21:16;;;;;;;15.60;5.38;;;;;;;3.21;79.87;99049.88;4892008;29;20040;-70
2021/12/07 08:23:42;;;;;;;13.40;5.30;;;;;;;3.21;79.73;99044.66;4897098;29;20433;-77
2021/12/07 08:26:09;;;;;;;15.85;5.28;;;;;;;3.22;79.44;99041.16;4917926;29;20068;-77
2021/12/07 08:28:35;;;;;;;15.55;5.07;;;;;;;3.19;79.65;99049.06;4919340;29;20048;-78
2021/12/07 08:31:02;;;;;;;12.07;6.07;;;;;;;3.16;79.46;99049.16;4930710;29;20051;-77
2021/12/07 08:33:28;;;;;;;16.40;6.43;;;;;;;3.20;79.64;99056.00;4908618;29;20043;-79
2021/12/07 08:35:53;;;;;;;14.10;4.70;;;;;;;3.22;79.35;99055.91;4914276;29;20039;-78
2021/12/07 08:38:19;;;;;;;7.68;4.72;;;;;;;3.26;79.50;99057.53;4887999;29;20820;-78
2021/12/07 08:40:53;;;;;;;12.73;4.97;;;;;;;3.30;79.28;99068.69;4893203;29;20036;-79
2021/12/07 08:43:19;;;;;;;13.73;5.32;;;;;;;3.33;78.94;99066.03;4898908;29;20048;-77
2021/12/07 08:45:44;;;;;;;18.23;5.40;;;;;;;3.36;78.93;99071.97;4913202;29;20036;-77
2021/12/07 08:48:10;;;;;;;12.45;5.03;;;;;;;3.41;78.66;99077.91;4921712;29;20044;-78
2021/12/07 08:50:35;;;;;;;27.95;8.70;;;;;;;3.44;78.34;99084.75;4902587;29;20096;-81
2021/12/07 08:53:07;;;;;;;19.98;4.45;;;;;;;3.49;78.39;99071.59;4923936;29;20117;-77
2021/12/07 09:01:05;;;;;;;7.65;4.35;;;;;;;3.42;78.21;99069.19;4909457;29;20122;-78
2021/12/07 09:03:30;;;;;;;15.68;4.68;;;;;;;3.44;77.87;99056.09;4918104;29;20068;-77
2021/12/07 09:05:56;;;;;;;11.07;4.82;;;;;;;3.44;77.96;99045.69;4919689;29;20046;-78
2021/12/07 09:08:22;;;;;;;16.52;4.38;;;;;;;3.42;77.88;99043.13;4901947;29;20147;-77
2021/12/07 09:10:47;;;;;;;12.98;4.70;;;;;;;3.53;77.92;99040.19;4914752;29;20040;-78
2021/12/07 09:13:13;;;;;;;8.02;4.55;;;;;;;3.62;77.74;99039.03;4911171;29;20037;-77
2021/12/07 09:15:39;;;;;;;13.93;4.90;;;;;;;3.69;77.91;99024.03;4912759;29;20028;-78
2021/12/07 09:18:05;;;;;;;14.25;4.90;;;;;;;3.72;77.47;99016.13;4912885;29;20144;-78
2021/12/07 09:20:31;;;;;;;11.10;4.40;;;;;;;3.86;76.81;99013.88;4896291;29;20043;-77
2021/12/07 09:22:58;;;;;;;15.75;5.70;;;;;;;4.25;75.14;99010.78;4900624;29;20128;-79
2021/12/07 09:25:23;;;;;;;11.40;4.72;;;;;;;5.16;72.93;99000.38;4907099;29;20617;-79
2021/12/07 09:27:50;;;;;;;12.93;5.38;;;;;;;6.39;68.10;99008.31;4909767;29;20036;-77
2021/12/07 09:30:17;;;;;;;13.48;5.53;;;;;;;7.50;64.66;99006.59;4912481;29;20052;-76
2021/12/07 09:32:43;;;;;;;11.98;4.57;;;;;;;7.85;61.95;98999.59;4911059;29;20025;-77
2021/12/07 09:35:09;;;;;;;14.55;5.72;;;;;;;8.51;59.80;99006.69;4908686;29;20056;-77
2021/12/07 09:37:35;;;;;;;9.65;4.78;;;;;;;8.78;58.66;99008.78;4910427;29;20040;-76
2021/12/07 09:40:04;;;;;;;13.63;4.93;;;;;;;9.06;57.64;99008.13;4906333;29;20043;-77
2021/12/07 09:42:29;;;;;;;15.20;6.68;;;;;;;9.17;57.15;99005.72;4906350;29;20103;-76
2021/12/07 09:44:55;;;;;;;14.38;4.50;;;;;;;9.63;55.81;99007.53;4892970;29;20516;-76
2021/12/07 09:47:21;;;;;;;10.07;3.40;;;;;;;9.62;55.28;99003.19;4910619;29;20051;-76
2021/12/07 09:49:46;;;;;;;17.08;4.88;;;;;;;9.89;54.72;99006.88;4910144;29;20047;-76
2021/12/07 09:52:12;;;;;;;9.95;3.95;;;;;;;10.07;54.08;98996.19;4912969;29;20044;-76
2021/12/07 09:54:38;;;;;;;11.48;3.90;;;;;;;10.48;52.93;98998.97;4910750;29;20059;-76
2021/12/07 09:57:04;;;;;;;16.00;4.05;;;;;;;10.48;52.32;98998.09;4916360;29;20599;-77
2021/12/07 09:59:30;;;;;;;11.45;3.97;;;;;;;10.62;52.17;99003.38;4906840;29;20075;-77
2021/12/07 10:01:56;;;;;;;10.80;4.45;;;;;;;10.86;51.74;98995.72;4925304;29;20040;-76
2021/12/07 10:04:27;;;;;;;10.50;3.83;;;;;;;11.12;51.37;98990.56;4915923;29;20040;-75
2021/12/07 10:06:53;;;;;;;8.95;3.33;;;;;;;10.96;51.21;98994.19;4914121;29;20048;-75
2021/12/07 10:09:19;;;;;;;11.77;3.60;;;;;;;10.50;51.80;98988.31;4903518;29;20045;-74
2021/12/07 10:11:44;;;;;;;9.70;4.22;;;;;;;10.17;53.13;98999.09;4902548;29;20036;-76
2021/12/07 10:14:10;;;;;;;6.53;3.70;;;;;;;10.03;54.26;99003.38;4899262;29;20054;-75
2021/12/07 10:16:35;;;;;;;10.52;4.00;;;;;;;9.45;54.99;98998.88;4911608;29;20047;-77
2021/12/07 10:19:00;;;;;;;11.48;4.60;;;;;;;8.94;56.96;98993.88;4924068;29;20469;-73
2021/12/07 10:21:31;;;;;;;8.93;4.72;;;;;;;8.78;57.00;98993.84;4892615;29;20032;-75
2021/12/07 10:24:09;;;;;;;11.93;3.53;;;;;;;8.58;58.30;98986.19;4903767;29;20119;-75
2021/12/07 10:29:20;;;;;;;9.50;3.28;;;;;;;7.90;59.74;98963.47;4289412;23;20061;-75
2021/12/07 10:31:52;;;;;;;12.25;4.95;;;;;;;7.89;59.68;98974.88;4944441;28;20466;-74
2021/12/07 10:34:29;;;;;;;11.15;4.28;;;;;;;7.68;60.68;98973.38;4947110;28;20499;-74
2021/12/07 10:37:04;;;;;;;14.52;3.50;;;;;;;7.36;61.09;98972.34;4961828;28;20038;-76
2021/12/07 10:39:36;;;;;;;10.70;3.50;;;;;;;6.91;61.72;98969.22;4941132;28;20041;-76
2021/12/07 10:42:12;;;;;;;12.05;4.10;;;;;;;6.61;62.59;98971.53;4944169;28;20062;-75
2021/12/07 10:44:40;;;;;;;7.90;3.22;;;;;;;6.40;63.33;98955.88;4966698;28;20066;-75
2021/12/07 10:47:14;;;;;;;10.23;2.80;;;;;;;6.10;64.62;98960.72;4945251;28;20039;-76
2021/12/07 10:49:46;;;;;;;12.80;3.35;;;;;;;5.98;65.33;98953.41;4956215;28;20038;-76
2021/12/07 10:52:12;;;;;;;11.25;4.18;;;;;;;5.97;65.63;98949.94;4950129;28;20043;-76
2021/12/07 10:54:41;;;;;;;14.43;3.90;;;;;;;5.94;65.42;98930.94;4960460;28;20041;-75
2021/12/07 10:57:09;;;;;;;13.10;3.20;;;;;;;5.90;66.06;98937.16;4961905;28;20491;-75
2021/12/07 10:59:36;;;;;;;8.82;3.90;;;;;;;5.94;66.98;98921.31;4969916;28;20117;-76
2021/12/07 11:02:18;;;;;;;11.45;4.15;;;;;;;5.91;66.19;98912.72;4970445;28;20043;-75
2021/12/07 11:04:45;;;;;;;11.13;3.45;;;;;;;5.85;66.30;98915.59;4972030;28;20051;-75
2021/12/07 11:07:16;;;;;;;6.35;3.72;;;;;;;5.72;65.93;98908.28;4965165;28;20046;-77
2021/12/07 11:09:45;;;;;;;9.07;3.10;;;;;;;5.76;65.20;98903.78;4980704;28;20042;-77
2021/12/07 11:12:13;;;;;;;18.02;3.65;;;;;;;5.67;66.17;98884.09;4979024;28;20046;-75
2021/12/07 11:14:51;;;;;;;13.75;3.78;;;;;;;5.75;66.27;98878.53;4974368;28;20046;-76
2021/12/07 11:17:32;;;;;;;8.48;3.83;;;;;;;5.73;66.34;98886.44;4964973;28;20062;-76
2021/12/07 11:19:59;;;;;;;7.70;3.30;;;;;;;5.79;66.63;98887.97;4967244;28;20496;-76
2021/12/07 11:22:30;;;;;;;9.35;3.80;;;;;;;5.90;66.43;98882.25;4972910;28;20323;-76
2021/12/07 11:24:57;;;;;;;9.18;3.03;;;;;;;5.90;65.85;98888.31;4978959;28;20065;-76
2021/12/07 11:30:09;;;;;;;32.83;13.82;;;;;;;5.79;65.86;98867.88;4983295;28;20042;-77
2021/12/07 11:32:35;;;;;;;12.68;3.28;;;;;;;5.85;65.57;98873.75;4981985;28;20034;-76
2021/12/07 11:35:15;;;;;;;14.02;4.32;;;;;;;5.82;65.32;98870.34;4978319;28;20042;-77
2021/12/07 11:37:41;;;;;;;12.32;4.20;;;;;;;5.70;64.30;98868.28;4965695;28;20058;-75
2021/12/07 11:40:09;;;;;;;14.63;3.22;;;;;;;5.74;65.80;98859.38;4970379;28;20035;-74
2021/12/07 11:42:41;;;;;;;7.78;3.35;;;;;;;5.84;64.65;98859.00;4955539;28;20050;-75
2021/12/07 11:45:15;;;;;;;5.65;2.70;;;;;;;5.90;64.73;98866.53;4955974;28;20043;-76
2021/12/07 11:47:51;;;;;;;7.55;2.88;;;;;;;5.82;63.07;98867.72;4964276;28;20134;-77
2021/12/07 11:50:16;;;;;;;;;;;;;;;5.80;63.30;98866.94;4957578;28;20049;-75
2021/12/07 11:52:42;;;;;;;12.83;3.53;;;;;;;5.78;63.88;98867.94;4965735;28;19922;-75
2021/12/07 11:55:09;;;;;;;15.38;4.70;;;;;;;5.82;63.70;98865.13;4962981;28;20085;-77
2021/12/07 11:57:35;;;;;;;11.48;3.55;;;;;;;5.80;62.98;98866.94;4964261;28;20039;-77
2021/12/07 12:00:01;;;;;;;9.82;3.22;;;;;;;5.82;63.12;98859.03;4966716;28;20109;-76
2021/12/07 12:02:26;;;;;;;9.18;3.30;;;;;;;5.83;63.68;98858.13;4965401;28;20085;-75
2021/12/07 12:04:51;;;;;;;8.20;3.95;;;;;;;5.88;63.20;98852.69;4962967;28;20046;-76
2021/12/07 12:07:19;;;;;;;12.65;2.90;;;;;;;5.90;63.17;98866.53;4961930;28;20035;-76
2021/12/07 12:09:50;;;;;;;6.68;2.25;;;;;;;5.91;62.16;98855.19;4965365;28;20039;-76
2021/12/07 12:12:30;;;;;;;8.57;2.80;;;;;;;5.93;62.80;98858.56;4963920;28;20481;-76
2021/12/07 12:15:21;;;;;;;7.68;3.22;;;;;;;5.96;62.67;98855.84;4965949;28;20445;-77
2021/12/07 12:17:57;;;;;;;8.05;3.47;;;;;;;5.97;62.54;98839.22;4950012;28;20043;-76
2021/12/07 12:20:39;;;;;;;11.00;3.28;;;;;;;6.02;62.49;98847.72;4965841;28;20042;-76
2021/12/07 12:23:33;;;;;;;8.98;2.60;;;;;;;5.97;62.87;98836.59;4964983;28;20093;-75
2021/12/07 12:26:04;;;;;;;5.05;2.88;;;;;;;5.87;62.76;98825.69;4962867;28;20158;-75
2021/12/07 12:28:40;;;;;;;9.80;2.70;;;;;;;5.88;62.70;98826.53;4946316;28;20035;-76
2021/12/07 12:31:07;;;;;;;10.52;3.03;;;;;;;5.90;63.11;98824.69;4967595;28;20047;-77
2021/12/07 12:33:45;;;;;;;12.18;5.07;;;;;;;5.95;63.10;98820.13;4952979;28;20035;-76
2021/12/07 12:36:11;;;;;;;6.68;3.17;;;;;;;5.96;62.45;98803.53;4953105;28;20047;-75
2021/12/07 12:38:36;;;;;;;12.38;3.60;;;;;;;5.93;62.15;98811.47;4966448;28;20031;-77
2021/12/07 12:41:04;;;;;;;7.63;3.05;;;;;;;5.86;62.69;98802.19;4964673;28;20458;-75
2021/12/07 12:43:35;;;;;;;10.27;3.83;;;;;;;5.82;62.96;98789.28;4964212;28;20042;-75
2021/12/07 12:46:02;;;;;;;8.10;3.10;;;;;;;5.78;63.21;98779.88;4927844;29;20098;-76
2021/12/07 12:48:28;;;;;;;7.15;2.92;;;;;;;5.77;62.91;98783.41;4956064;28;20045;-77
2021/12/07 12:50:54;;;;;;;11.18;2.70;;;;;;;5.74;62.59;98780.94;4965986;28;20094;-76
2021/12/07 12:53:31;;;;;;;4.65;2.30;;;;;;;5.73;62.87;98774.00;4939750;28;20104;-76
2021/12/07 12:56:05;;;;;;;4.85;2.50;;;;;;;5.68;63.44;98765.50;4965061;28;20558;-77
2021/12/07 12:58:35;;;;;;;8.88;3.05;;;;;;;5.71;63.38;98761.91;4965871;28;20089;-76
2021/12/07 13:01:11;;;;;;;10.50;3.28;;;;;;;5.64;63.57;98758.75;4964976;28;20407;-75
2021/12/07 13:03:43;;;;;;;16.35;3.75;;;;;;;5.50;64.30;98742.84;4950779;28;20034;-75
2021/12/07 13:06:30;;;;;;;12.57;4.05;;;;;;;5.53;64.00;98737.47;4964031;28;20046;-76
2021/12/07 13:09:05;;;;;;;7.13;2.88;;;;;;;5.61;64.35;98727.50;4911852;28;20050;-77
2021/12/07 13:11:39;;;;;;;10.82;2.45;;;;;;;5.63;64.48;98722.19;4951188;28;20046;-76
2021/12/07 13:14:26;;;;;;;13.73;3.03;;;;;;;5.66;63.84;98719.44;4969980;28;20039;-76
2021/12/07 13:17:04;;;;;;;5.22;3.88;;;;;;;5.65;64.24;98707.28;4959833;28;20042;-77
2021/12/07 13:19:31;;;;;;;14.07;3.45;;;;;;;5.61;64.24;98698.72;4956882;28;20097;-77
2021/12/07 13:22:05;;;;;;;6.38;2.47;;;;;;;5.59;63.95;98703.22;4972333;28;20573;-77
2021/12/07 13:24:35;;;;;;;8.40;3.30;;;;;;;5.56;64.45;98698.97;4968624;28;20509;-76